Time;durP1;ratioP1;P1;durP2;ratioP2;P2;SDS_P1;SDS_P2;PMS_P1;PMS_P2;Temp;Humidity;BMP_temperature;BMP_pressure;BME280_temperature;BME280_humidity;BME280_pressure;Samples;Min_cycle;Max_cycle;Signal;HPM_P1;HPM_P2
2021/08/17 00:00:58;;;;;;;18.55;8.40;;;;;;;22.17;63.49;99301.47;5045669;28;20049;-67
2021/08/17 00:03:24;;;;;;;17.45;7.65;;;;;;;22.17;63.78;99305.94;5032298;28;20177;-65
2021/08/17 00:05:51;;;;;;;24.67;8.57;;;;;;;21.99;64.02;99287.19;5009947;28;20517;-66
2021/08/17 00:08:17;;;;;;;21.70;8.75;;;;;;;22.05;64.84;99304.34;5022844;28;20041;-65
2021/08/17 00:10:43;;;;;;;19.17;8.85;;;;;;;22.13;64.57;99315.13;5029360;28;20148;-65
2021/08/17 00:13:09;;;;;;;16.08;7.95;;;;;;;22.12;64.27;99314.28;5031845;28;20049;-67
2021/08/17 00:15:35;;;;;;;20.58;8.98;;;;;;;22.02;64.66;99296.69;5035571;28;20082;-65
2021/08/17 00:18:02;;;;;;;19.25;8.93;;;;;;;22.08;65.31;99307.59;5021897;28;20076;-65
2021/08/17 00:20:28;;;;;;;19.48;9.23;;;;;;;22.04;65.71;99303.50;5030156;28;20494;-66
2021/08/17 00:22:54;;;;;;;13.98;8.57;;;;;;;22.03;65.87;99311.63;5034136;28;20068;-66
2021/08/17 00:25:21;;;;;;;17.85;8.27;;;;;;;22.03;65.52;99306.31;5046718;28;20055;-66
2021/08/17 00:27:47;;;;;;;15.45;8.43;;;;;;;21.93;66.19;99291.19;5030734;28;20045;-66
2021/08/17 00:30:13;;;;;;;22.35;9.25;;;;;;;21.98;67.50;99311.19;5011716;28;20049;-64
2021/08/17 00:32:39;;;;;;;17.20;8.65;;;;;;;21.93;67.65;99300.94;5024210;28;20124;-64
2021/08/17 00:35:05;;;;;;;22.60;9.45;;;;;;;21.81;67.12;99283.50;5026835;28;20471;-65
2021/08/17 00:37:31;;;;;;;23.38;9.43;;;;;;;21.90;67.27;99302.06;5029273;28;20558;-64
2021/08/17 00:39:57;;;;;;;16.60;8.65;;;;;;;21.94;66.93;99308.78;5043649;28;20041;-65
2021/08/17 00:42:23;;;;;;;17.48;8.90;;;;;;;21.97;67.16;99310.34;5022399;28;20060;-65
2021/08/17 00:44:50;;;;;;;17.80;8.95;;;;;;;21.98;67.49;99306.72;5034477;28;20211;-66
2021/08/17 00:47:16;;;;;;;15.18;8.55;;;;;;;21.89;67.38;99281.00;5049220;28;20048;-65
2021/08/17 00:49:44;;;;;;;21.05;9.63;;;;;;;22.04;66.63;99303.50;5036029;28;20073;-66
2021/08/17 00:52:12;;;;;;;19.33;9.20;;;;;;;22.06;66.44;99301.59;5029999;28;20041;-66
2021/08/17 00:54:49;;;;;;;20.10;8.93;;;;;;;22.06;66.59;99293.63;5029067;28;20157;-66
2021/08/17 00:57:15;;;;;;;22.23;9.65;;;;;;;21.95;66.70;99281.34;5028801;28;20048;-65
2021/08/17 00:59:41;;;;;;;18.17;9.50;;;;;;;22.02;67.55;99294.03;5021506;28;20042;-65
2021/08/17 01:02:07;;;;;;;19.17;9.40;;;;;;;21.98;68.13;99308.53;5047581;28;20091;-66
2021/08/17 01:04:35;;;;;;;18.23;9.65;;;;;;;21.88;68.42;99284.59;5034133;28;20586;-65
2021/08/17 01:07:02;;;;;;;17.33;8.90;;;;;;;21.92;68.67;99299.28;5027505;28;20038;-65
2021/08/17 01:09:28;;;;;;;18.00;9.00;;;;;;;22.00;68.50;99304.75;5019778;28;20041;-65
2021/08/17 01:11:54;;;;;;;19.75;9.40;;;;;;;22.02;68.27;99299.34;5038721;28;20044;-64
2021/08/17 01:14:20;;;;;;;21.38;10.20;;;;;;;21.96;67.96;99283.03;5037858;28;20041;-65
2021/08/17 01:16:49;;;;;;;18.60;9.10;;;;;;;22.05;68.87;99289.31;5032569;28;20041;-65
2021/08/17 01:19:19;;;;;;;19.00;9.48;;;;;;;22.04;69.59;99289.44;5016890;28;20052;-64
2021/08/17 01:21:46;;;;;;;22.48;10.27;;;;;;;22.03;69.96;99303.66;5016282;28;20133;-64
2021/08/17 01:24:12;;;;;;;25.40;10.55;;;;;;;22.03;70.26;99298.38;5038317;28;20095;-60
2021/08/17 01:26:38;;;;;;;21.70;10.25;;;;;;;22.04;70.11;99306.16;5046170;28;20069;-64
2021/08/17 01:29:05;;;;;;;20.08;12.00;;;;;;;22.09;70.46;99311.03;5033930;28;20224;-64
2021/08/17 01:31:31;;;;;;;28.98;13.93;;;;;;;22.10;70.62;99305.63;5029684;28;20128;-65
2021/08/17 01:33:57;;;;;;;23.33;11.90;;;;;;;22.06;70.75;99304.22;5017667;28;20050;-64
2021/08/17 01:36:22;;;;;;;21.25;11.80;;;;;;;22.15;70.37;99308.72;5034175;28;20045;-65
2021/08/17 01:38:50;;;;;;;21.55;10.93;;;;;;;22.17;70.04;99305.94;5026555;28;20045;-65
2021/08/17 01:41:17;;;;;;;19.15;11.75;;;;;;;22.14;70.29;99295.63;5033193;28;20060;-65
2021/08/17 01:43:44;;;;;;;22.08;11.77;;;;;;;22.03;70.51;99280.69;5032047;28;20076;-65
2021/08/17 01:46:10;;;;;;;23.48;11.63;;;;;;;22.08;70.97;99297.00;5030485;28;20045;-65
2021/08/17 01:48:36;;;;;;;17.98;10.68;;;;;;;21.86;71.40;99276.81;5028609;28;20043;-65
2021/08/17 01:51:03;;;;;;;22.17;10.55;;;;;;;22.00;71.63;99335.69;5034112;28;20041;-67
2021/08/17 01:53:29;;;;;;;19.02;9.57;;;;;;;21.91;71.48;99324.06;5014181;28;20041;-67
2021/08/17 01:55:56;;;;;;;17.17;9.98;;;;;;;21.86;71.37;99323.63;5043179;28;20047;-66
2021/08/17 01:58:26;;;;;;;20.45;9.75;;;;;;;21.79;71.46;99320.66;5050298;28;20053;-68
2021/08/17 02:00:53;;;;;;;19.67;9.95;;;;;;;21.86;71.30;99340.34;5049499;28;20041;-67
2021/08/17 02:03:19;;;;;;;18.58;9.20;;;;;;;21.87;70.88;99338.53;5051277;28;20041;-64
2021/08/17 02:05:45;;;;;;;15.48;10.00;;;;;;;21.86;70.53;99343.00;5043984;28;20420;-66
2021/08/17 02:08:11;;;;;;;16.42;9.38;;;;;;;21.87;70.15;99344.69;5047232;28;20388;-66
2021/08/17 02:10:37;;;;;;;18.60;9.98;;;;;;;21.88;70.00;99342.84;5039593;28;20048;-64
2021/08/17 02:13:04;;;;;;;16.58;9.40;;;;;;;21.87;69.96;99352.63;5030063;28;20045;-67
2021/08/17 02:15:30;;;;;;;18.23;10.35;;;;;;;21.87;70.10;99362.38;5042823;28;20508;-67
2021/08/17 02:17:56;;;;;;;17.30;10.23;;;;;;;21.89;69.95;99347.16;5029518;28;20136;-65
2021/08/17 02:20:22;;;;;;;14.82;9.57;;;;;;;21.91;69.59;99361.13;5029957;28;20131;-66
2021/08/17 02:22:48;;;;;;;15.55;8.88;;;;;;;21.90;69.12;99356.78;5044628;28;20075;-62
2021/08/17 02:25:14;;;;;;;16.88;8.85;;;;;;;21.89;68.76;99363.91;5025393;28;20049;-64
2021/08/17 02:27:40;;;;;;;15.00;8.73;;;;;;;21.88;68.55;99372.81;5017936;28;20045;-66
2021/08/17 02:30:07;;;;;;;12.38;8.48;;;;;;;21.90;68.77;99377.97;5031261;28;20041;-65
2021/08/17 02:32:33;;;;;;;14.25;8.85;;;;;;;21.90;68.86;99386.75;5030248;28;20073;-64
2021/08/17 02:34:59;;;;;;;14.32;8.35;;;;;;;21.85;68.66;99380.19;5019281;28;20042;-65
2021/08/17 02:37:25;;;;;;;14.05;8.18;;;;;;;21.89;68.63;99384.22;4993535;28;20536;-65
2021/08/17 02:39:51;;;;;;;14.00;8.35;;;;;;;21.81;68.65;99368.19;5041601;28;20073;-64
2021/08/17 02:42:17;;;;;;;13.85;8.68;;;;;;;21.92;68.69;99371.59;5033486;28;20472;-64
2021/08/17 02:44:44;;;;;;;16.50;8.38;;;;;;;21.94;68.64;99388.19;5050570;28;20045;-65
2021/08/17 02:47:10;;;;;;;14.95;8.43;;;;;;;21.98;68.81;99390.59;5029573;28;20539;-65
2021/08/17 02:49:37;;;;;;;13.18;8.35;;;;;;;21.96;69.24;99394.22;5041225;28;20068;-66
2021/08/17 02:52:04;;;;;;;12.25;9.10;;;;;;;21.98;69.61;99410.78;5009842;28;20582;-64
2021/08/17 02:54:31;;;;;;;17.15;8.93;;;;;;;21.99;70.14;99403.69;5035597;28;20598;-65
2021/08/17 02:56:57;;;;;;;14.30;7.15;;;;;;;22.03;69.82;99406.94;5045498;28;20166;-64
2021/08/17 02:59:23;;;;;;;12.23;8.20;;;;;;;21.92;69.45;99392.78;5033673;28;20084;-64
2021/08/17 03:01:49;;;;;;;12.95;7.60;;;;;;;22.05;69.79;99426.16;5042013;28;20049;-64
2021/08/17 03:04:15;;;;;;;17.00;8.38;;;;;;;22.07;70.25;99438.28;5022188;28;20459;-64
2021/08/17 03:06:41;;;;;;;17.23;7.88;;;;;;;22.10;70.28;99445.97;5030500;28;20042;-64
2021/08/17 03:09:07;;;;;;;11.77;6.88;;;;;;;22.15;69.68;99454.34;5029790;28;20037;-64
2021/08/17 03:11:33;;;;;;;13.30;6.40;;;;;;;22.05;68.16;99431.44;5031162;28;20041;-63
2021/08/17 03:13:59;;;;;;;11.07;6.50;;;;;;;22.16;67.55;99453.38;5025991;28;20435;-65
2021/08/17 03:16:26;;;;;;;10.00;6.38;;;;;;;22.20;67.12;99448.66;5048296;28;20585;-65
2021/08/17 03:18:52;;;;;;;12.85;6.40;;;;;;;22.08;67.22;99417.97;5048550;28;20075;-64
2021/08/17 03:21:18;;;;;;;12.85;6.80;;;;;;;22.32;67.22;99456.41;5027081;28;20144;-65
2021/08/17 03:23:44;;;;;;;12.73;6.97;;;;;;;22.39;66.95;99443.47;5010031;28;20044;-63
2021/08/17 03:26:10;;;;;;;11.55;5.95;;;;;;;22.44;66.23;99438.59;5009693;28;20045;-66
2021/08/17 03:28:36;;;;;;;12.60;8.85;;;;;;;22.51;65.50;99446.84;5037761;28;20065;-65
2021/08/17 03:31:02;;;;;;;13.07;6.15;;;;;;;22.59;65.60;99442.56;5042306;28;20127;-65
2021/08/17 03:33:28;;;;;;;10.20;6.28;;;;;;;22.66;65.79;99448.19;5016773;28;20041;-65
2021/08/17 03:35:54;;;;;;;16.77;7.15;;;;;;;22.69;66.05;99461.16;5029196;28;20064;-64
2021/08/17 03:38:20;;;;;;;11.77;6.50;;;;;;;22.69;65.91;99469.09;5029783;28;20045;-65
2021/08/17 03:40:46;;;;;;;11.02;5.93;;;;;;;22.63;65.43;99438.66;5030661;28;20099;-65
2021/08/17 03:43:12;;;;;;;8.02;5.68;;;;;;;22.75;64.85;99447.38;5050031;28;20450;-66
2021/08/17 03:45:38;;;;;;;14.38;6.22;;;;;;;22.77;64.45;99453.38;5049963;28;20059;-65
2021/08/17 03:48:04;;;;;;;45.80;8.95;;;;;;;22.83;64.29;99450.19;5022683;28;20778;-64
2021/08/17 03:50:30;;;;;;;9.45;5.65;;;;;;;22.86;64.15;99452.59;5033700;28;20516;-62
2021/08/17 03:52:56;;;;;;;11.43;5.70;;;;;;;22.89;63.64;99456.75;5038587;28;20535;-65
2021/08/17 03:55:22;;;;;;;11.05;5.28;;;;;;;22.98;63.41;99455.94;5033975;28;20124;-63
2021/08/17 03:57:49;;;;;;;6.53;4.72;;;;;;;23.07;63.02;99455.97;5031200;28;20061;-65
2021/08/17 04:00:18;;;;;;;5.75;5.05;;;;;;;23.20;62.45;99455.69;5015070;28;20528;-65
2021/08/17 04:02:44;;;;;;;9.82;5.53;;;;;;;23.29;61.87;99460.16;5047914;28;20044;-66
2021/08/17 04:05:12;;;;;;;12.32;7.32;;;;;;;23.40;61.40;99451.22;5044719;28;20049;-65
2021/08/17 04:07:38;;;;;;;12.32;7.28;;;;;;;23.52;60.91;99448.34;5028360;28;20037;-63
2021/08/17 04:10:06;;;;;;;11.98;6.43;;;;;;;23.62;60.46;99443.03;5045658;28;20830;-65
2021/08/17 04:12:32;;;;;;;9.68;5.28;;;;;;;23.72;60.22;99441.19;5018916;28;20049;-64
2021/08/17 04:14:58;;;;;;;7.18;5.00;;;;;;;23.76;60.36;99439.09;5014704;28;20052;-64
2021/08/17 04:17:24;;;;;;;11.85;6.63;;;;;;;23.75;60.36;99437.44;5016461;28;20536;-65
2021/08/17 04:19:50;;;;;;;10.77;6.07;;;;;;;23.74;60.50;99433.09;5028190;28;20037;-65
2021/08/17 04:22:16;;;;;;;8.68;5.38;;;;;;;23.71;60.57;99439.50;5026666;28;20136;-63
2021/08/17 04:24:42;;;;;;;7.68;4.43;;;;;;;23.68;60.51;99438.97;5035141;28;20045;-64
2021/08/17 04:27:08;;;;;;;8.55;4.57;;;;;;;23.64;60.69;99441.06;5037301;28;20520;-64
2021/08/17 04:29:34;;;;;;;7.70;4.93;;;;;;;23.60;60.95;99440.50;5049095;28;20060;-64
2021/08/17 04:32:00;;;;;;;9.02;5.10;;;;;;;23.58;61.13;99434.50;5044146;28;20051;-64
2021/08/17 04:34:26;;;;;;;8.85;5.30;;;;;;;23.60;61.39;99437.03;5024283;28;20144;-64
2021/08/17 04:36:51;;;;;;;12.43;5.53;;;;;;;23.61;61.25;99441.34;5009443;28;20431;-64
2021/08/17 04:39:17;;;;;;;7.28;5.25;;;;;;;23.60;61.59;99440.50;5038413;28;20041;-63
2021/08/17 04:41:43;;;;;;;10.07;5.70;;;;;;;23.59;62.05;99438.00;5049868;28;20041;-62
2021/08/17 04:44:09;;;;;;;7.88;4.88;;;;;;;23.55;62.47;99432.13;5051042;28;20041;-65
2021/08/17 04:46:35;;;;;;;11.50;5.28;;;;;;;23.54;62.81;99437.59;5040243;28;20061;-65
2021/08/17 04:49:01;;;;;;;9.32;4.90;;;;;;;23.50;63.11;99437.00;5012999;28;20068;-66
2021/08/17 04:51:27;;;;;;;8.45;5.15;;;;;;;23.47;62.78;99426.69;5028719;28;20480;-65
2021/08/17 04:53:54;;;;;;;6.90;4.50;;;;;;;23.44;62.35;99432.25;5045867;28;20037;-66
2021/08/17 04:56:20;;;;;;;7.15;4.50;;;;;;;23.40;62.20;99437.97;5032971;28;20038;-65
2021/08/17 04:58:46;;;;;;;11.20;5.75;;;;;;;23.36;62.14;99424.16;5039222;28;20058;-63
2021/08/17 05:01:12;;;;;;;8.23;5.07;;;;;;;23.34;62.20;99404.06;5026388;28;20037;-57
2021/08/17 05:03:38;;;;;;;13.50;5.05;;;;;;;23.32;62.17;99388.25;5052331;28;20114;-56
2021/08/17 05:06:04;;;;;;;15.73;5.93;;;;;;;23.30;62.53;99349.56;5044070;28;20587;-58
2021/08/17 05:08:30;;;;;;;9.43;4.80;;;;;;;23.26;62.46;99317.19;5014192;28;20096;-56
2021/08/17 05:10:56;;;;;;;9.77;4.93;;;;;;;23.23;62.68;99272.41;5027800;28;20099;-58
2021/08/17 05:13:22;;;;;;;9.98;4.80;;;;;;;23.19;62.73;99261.22;5012720;28;20041;-57
2021/08/17 05:15:48;;;;;;;5.63;4.40;;;;;;;23.17;62.88;99305.63;5012177;28;20038;-58
2021/08/17 05:18:13;;;;;;;6.72;4.30;;;;;;;23.06;63.13;99321.69;5012366;28;20472;-58
2021/08/17 05:20:39;;;;;;;8.77;4.60;;;;;;;23.07;62.94;99338.44;5011402;28;20291;-58
2021/08/17 05:23:05;;;;;;;9.88;4.43;;;;;;;23.09;63.40;99334.66;5016031;28;20042;-58
2021/08/17 05:25:31;;;;;;;6.00;4.82;;;;;;;23.12;63.77;99350.31;5036556;28;20041;-58
2021/08/17 05:27:57;;;;;;;8.93;4.47;;;;;;;23.15;64.02;99354.47;5050984;28;20119;-57
2021/08/17 05:30:23;;;;;;;9.88;4.68;;;;;;;23.18;64.25;99347.09;5041237;28;20145;-57
2021/08/17 05:32:49;;;;;;;11.70;4.47;;;;;;;23.25;63.84;99355.31;5033567;28;20424;-57
2021/08/17 05:35:15;;;;;;;12.05;4.68;;;;;;;23.30;63.27;99358.38;5012309;28;20129;-57
2021/08/17 05:37:41;;;;;;;12.73;7.90;;;;;;;23.33;63.03;99352.81;5012213;28;20492;-57
2021/08/17 05:40:07;;;;;;;8.90;4.93;;;;;;;23.39;62.96;99348.75;5011874;28;20125;-56
2021/08/17 05:42:33;;;;;;;10.73;6.03;;;;;;;23.43;62.91;99339.53;5011953;28;20399;-58
2021/08/17 05:44:59;;;;;;;18.05;5.45;;;;;;;23.49;62.81;99323.06;5012212;28;20128;-58
2021/08/17 05:47:25;;;;;;;15.57;6.57;;;;;;;23.53;62.74;99316.50;5038237;28;20107;-57
2021/08/17 05:49:51;;;;;;;13.73;6.07;;;;;;;23.41;62.54;99278.63;5036259;28;20549;-57
2021/08/17 05:52:17;;;;;;;15.25;5.70;;;;;;;23.68;62.07;99314.19;5040835;28;20076;-56
2021/08/17 05:54:43;;;;;;;13.70;5.82;;;;;;;23.76;61.89;99311.69;5025724;28;20037;-55
2021/08/17 05:57:09;;;;;;;14.10;5.78;;;;;;;23.86;61.59;99318.63;5021703;28;20049;-55
2021/08/17 05:59:35;;;;;;;11.25;5.90;;;;;;;23.94;61.13;99323.19;5031409;28;20500;-57
2021/08/17 06:02:03;;;;;;;9.07;5.30;;;;;;;24.00;60.55;99330.56;5029897;28;20048;-54
2021/08/17 06:04:29;;;;;;;13.70;5.40;;;;;;;23.99;60.35;99323.59;5019347;28;20151;-57
2021/08/17 06:06:55;;;;;;;10.60;5.40;;;;;;;24.00;60.34;99328.75;5025211;28;20267;-56
2021/08/17 06:09:22;;;;;;;16.92;6.10;;;;;;;24.11;59.78;99335.69;5034605;28;20049;-57
2021/08/17 06:11:50;;;;;;;16.30;4.93;;;;;;;24.28;59.61;99332.31;4994305;28;20084;-56
2021/08/17 06:14:16;;;;;;;14.93;5.47;;;;;;;24.46;59.03;99338.47;5015769;28;20045;-55
2021/08/17 06:16:43;;;;;;;8.55;5.05;;;;;;;24.65;58.54;99332.19;5020328;28;20398;-56
2021/08/17 06:19:09;;;;;;;11.07;4.78;;;;;;;24.69;58.17;99303.50;5011882;28;20041;-55
2021/08/17 06:21:35;;;;;;;12.93;5.30;;;;;;;25.04;57.20;99323.94;5034569;28;20040;-54
2021/08/17 06:24:03;;;;;;;9.57;4.45;;;;;;;25.41;55.99;99327.25;5040818;28;20075;-54
2021/08/17 06:26:29;;;;;;;13.68;7.63;;;;;;;25.92;55.25;99317.59;5030079;28;20041;-49
2021/08/17 06:28:55;;;;;;;8.70;5.03;;;;;;;26.50;52.88;99331.00;5026562;28;20516;-54
2021/08/17 06:31:24;;;;;;;15.70;5.20;;;;;;;26.74;51.30;99333.75;5043052;28;20048;-56
2021/08/17 06:33:50;;;;;;;;;;;;;;;27.00;50.49;99336.31;5033014;28;20076;-56
2021/08/17 06:36:16;;;;;;;8.98;4.97;;;;;;;27.47;48.95;99340.97;5034919;28;19926;-55
2021/08/17 06:38:42;;;;;;;10.50;5.40;;;;;;;28.22;47.39;99342.31;5029989;28;20049;-55
2021/08/17 06:41:08;;;;;;;7.47;4.88;;;;;;;28.98;45.32;99334.41;5019001;28;20049;-54
2021/08/17 06:43:35;;;;;;;8.00;5.15;;;;;;;29.88;43.65;99346.00;5030550;28;20139;-56
2021/08/17 06:46:01;;;;;;;11.98;5.30;;;;;;;30.52;41.93;99345.41;5030352;28;20179;-56
2021/08/17 06:48:27;;;;;;;10.35;5.85;;;;;;;31.37;40.35;99350.84;5030300;28;20033;-55
2021/08/17 06:50:53;;;;;;;12.60;6.25;;;;;;;32.11;38.84;99351.19;5029898;28;20574;-57
2021/08/17 06:53:18;;;;;;;12.45;6.43;;;;;;;32.91;38.12;99345.97;5027356;28;20045;-57
2021/08/17 06:55:44;;;;;;;13.10;6.00;;;;;;;33.84;36.64;99344.97;5030507;28;20033;-57
2021/08/17 06:58:14;;;;;;;17.42;6.40;;;;;;;34.50;35.18;99335.84;5033337;28;20057;-59
2021/08/17 07:00:45;;;;;;;21.65;7.80;;;;;;;35.29;34.23;99344.34;5029981;28;20421;-57
2021/08/17 07:03:12;;;;;;;18.60;8.10;;;;;;;36.01;32.64;99356.41;5026709;28;20069;-57
2021/08/17 07:05:43;;;;;;;15.52;7.65;;;;;;;36.81;30.96;99359.81;5022174;28;20465;-56
2021/08/17 07:08:10;;;;;;;20.00;10.00;;;;;;;37.39;30.40;99351.84;5029293;28;20048;-58
2021/08/17 07:10:36;;;;;;;21.90;9.43;;;;;;;38.19;29.64;99356.72;5028490;28;20067;-57
2021/08/17 07:13:03;;;;;;;11.98;6.40;;;;;;;38.87;28.02;99367.63;5031309;28;20036;-56
2021/08/17 07:15:29;;;;;;;10.07;6.53;;;;;;;39.00;27.13;99359.16;5034598;28;20576;-55
2021/08/17 07:17:55;;;;;;;14.13;6.88;;;;;;;39.59;26.61;99362.38;5006708;28;20045;-56
2021/08/17 07:20:21;;;;;;;15.27;6.90;;;;;;;40.10;25.63;99351.16;5033464;28;20037;-57
2021/08/17 07:22:47;;;;;;;10.25;7.90;;;;;;;40.74;25.18;99362.31;5037173;28;20045;-58
2021/08/17 07:25:14;;;;;;;14.98;8.18;;;;;;;41.13;24.54;99354.84;5032946;28;20460;-58
2021/08/17 07:27:40;;;;;;;15.93;7.53;;;;;;;41.22;23.43;99347.81;5030556;28;20123;-56
2021/08/17 07:30:11;;;;;;;21.10;10.32;;;;;;;41.78;23.77;99356.44;5030161;28;20068;-57
2021/08/17 07:32:41;;;;;;;19.92;10.25;;;;;;;42.23;23.36;99364.91;5021026;28;20040;-57
2021/08/17 07:35:09;;;;;;;21.70;15.50;;;;;;;42.90;22.37;99355.88;5010392;28;20041;-57
2021/08/17 07:37:34;;;;;;;;;;;;;;;43.48;22.15;99361.97;5028903;28;20044;-57
2021/08/17 07:40:01;;;;;;;18.50;12.52;;;;;;;43.92;21.24;99369.59;5025790;28;19928;-57
2021/08/17 07:42:26;;;;;;;17.98;7.95;;;;;;;44.26;20.61;99370.56;5029258;28;20067;-57
2021/08/17 07:44:52;;;;;;;13.57;9.68;;;;;;;44.66;20.40;99384.13;5029528;28;20037;-57
2021/08/17 07:47:18;;;;;;;8.82;6.68;;;;;;;44.96;20.16;99379.56;5029248;28;20091;-53
2021/08/17 07:49:44;;;;;;;8.10;6.80;;;;;;;45.10;19.81;99378.66;5029500;28;20135;-56
2021/08/17 07:52:09;;;;;;;19.75;9.55;;;;;;;45.32;19.87;99378.22;5026657;28;20029;-56
2021/08/17 07:54:35;;;;;;;13.55;8.70;;;;;;;45.45;19.76;99371.25;5030026;28;20517;-56
2021/08/17 07:57:01;;;;;;;11.93;7.15;;;;;;;45.59;19.93;99385.97;5028164;28;20114;-56
2021/08/17 07:59:27;;;;;;;19.10;12.90;;;;;;;45.87;19.02;99387.06;5029194;28;20085;-55
2021/08/17 08:01:53;;;;;;;10.70;9.00;;;;;;;46.13;18.71;99382.09;5028280;28;20513;-56
2021/08/17 08:04:19;;;;;;;16.48;12.65;;;;;;;46.19;18.74;99381.78;5027850;28;20045;-55
2021/08/17 08:06:45;;;;;;;12.70;8.20;;;;;;;46.20;18.94;99375.19;5028250;28;20127;-57
2021/08/17 08:09:11;;;;;;;44.85;20.65;;;;;;;46.44;18.31;99375.13;5028128;28;20425;-57
2021/08/17 08:11:37;;;;;;;15.13;9.52;;;;;;;46.78;18.36;99378.53;5029489;28;20456;-59
2021/08/17 08:14:02;;;;;;;27.00;15.23;;;;;;;46.79;18.46;99373.88;5027651;28;20500;-60
2021/08/17 08:16:28;;;;;;;32.28;15.25;;;;;;;46.88;18.28;99365.75;5028303;28;20060;-60
2021/08/17 08:18:54;;;;;;;16.17;10.20;;;;;;;46.85;18.25;99371.84;5033375;28;20147;-60
2021/08/17 08:21:20;;;;;;;16.52;11.18;;;;;;;46.77;17.85;99363.16;5032932;28;20045;-58
2021/08/17 08:23:46;;;;;;;12.52;9.27;;;;;;;46.93;18.01;99372.03;5033959;28;20176;-60
2021/08/17 08:26:12;;;;;;;20.58;12.40;;;;;;;47.15;18.03;99368.66;5033998;28;20141;-58
2021/08/17 08:28:38;;;;;;;14.82;9.80;;;;;;;47.25;18.19;99359.38;5030913;28;20043;-58
2021/08/17 08:31:04;;;;;;;11.90;7.45;;;;;;;47.43;17.80;99366.81;5034657;28;20045;-59
2021/08/17 08:33:30;;;;;;;24.48;8.73;;;;;;;47.54;17.59;99365.50;4998800;28;20041;-59
2021/08/17 08:35:56;;;;;;;13.85;8.25;;;;;;;47.53;17.60;99367.44;5031676;28;20067;-60
2021/08/17 08:38:21;;;;;;;17.27;9.20;;;;;;;47.29;17.84;99353.00;5039442;28;20038;-58
2021/08/17 08:40:50;;;;;;;20.63;9.52;;;;;;;47.44;17.45;99361.00;5035102;28;20544;-60
2021/08/17 08:43:20;;;;;;;11.23;9.20;;;;;;;47.64;17.27;99359.84;5033102;28;20041;-60
2021/08/17 08:45:47;;;;;;;11.30;9.35;;;;;;;47.73;17.10;99358.03;5024088;28;20128;-58
2021/08/17 08:48:15;;;;;;;16.27;9.00;;;;;;;47.97;16.82;99360.56;5032476;28;20424;-59
2021/08/17 08:50:42;;;;;;;11.48;7.25;;;;;;;48.11;17.06;99358.66;5032679;28;20037;-58
2021/08/17 08:53:09;;;;;;;11.95;8.80;;;;;;;48.34;16.74;99354.88;5030766;28;20041;-58
2021/08/17 08:55:35;;;;;;;18.13;11.25;;;;;;;48.77;16.21;99362.78;5032660;28;20052;-59
2021/08/17 08:58:01;;;;;;;11.48;9.35;;;;;;;48.95;15.63;99358.22;5032616;28;20528;-58
2021/08/17 09:00:26;;;;;;;14.45;8.55;;;;;;;48.19;16.27;99357.13;5033352;28;20187;-57
2021/08/17 09:02:55;;;;;;;13.95;9.93;;;;;;;48.37;16.11;99342.41;5033414;28;20049;-57
2021/08/17 09:05:22;;;;;;;18.80;8.45;;;;;;;48.83;16.01;99349.69;5027620;28;20037;-57
2021/08/17 09:07:48;;;;;;;23.55;8.88;;;;;;;48.68;15.73;99339.78;5030409;28;20096;-59
2021/08/17 09:10:18;;;;;;;10.10;8.55;;;;;;;48.26;15.41;99341.00;5032401;28;20037;-61
2021/08/17 09:12:49;;;;;;;14.02;8.50;;;;;;;47.53;16.44;99339.06;5032145;28;20034;-60
2021/08/17 09:15:21;;;;;;;13.57;8.25;;;;;;;47.64;16.03;99345.22;5032137;28;20041;-58
2021/08/17 09:18:07;;;;;;;18.92;8.35;;;;;;;46.18;17.50;99336.16;5030810;28;20609;-61
2021/08/17 09:20:44;;;;;;;12.70;8.13;;;;;;;45.16;18.03;99330.03;5030799;28;20424;-59
2021/08/17 09:23:34;;;;;;;12.80;7.65;;;;;;;44.80;18.12;99334.13;5031890;28;20033;-60
2021/08/17 09:26:20;;;;;;;11.80;7.93;;;;;;;43.53;19.39;99322.78;5029303;28;20045;-59
2021/08/17 09:28:53;;;;;;;11.82;7.65;;;;;;;42.70;20.37;99320.28;5010645;28;20048;-59
2021/08/17 09:31:36;;;;;;;13.32;8.50;;;;;;;42.32;20.65;99315.22;5029947;28;20041;-59
2021/08/17 09:34:02;;;;;;;17.63;8.63;;;;;;;43.20;20.16;99302.25;5028354;28;20052;-58
2021/08/17 09:36:36;;;;;;;16.52;8.18;;;;;;;44.39;19.06;99303.34;5031952;28;20045;-57
2021/08/17 09:39:02;;;;;;;14.68;7.70;;;;;;;45.10;18.49;99307.28;5029978;28;20482;-59
2021/08/17 09:41:28;;;;;;;14.43;8.27;;;;;;;45.62;17.95;99304.88;5030320;28;20041;-59
2021/08/17 09:44:02;;;;;;;19.67;8.30;;;;;;;45.84;17.74;99296.97;5028467;28;20048;-59
2021/08/17 09:46:45;;;;;;;12.07;8.18;;;;;;;45.14;18.27;99308.34;5034553;28;20037;-60
2021/08/17 09:49:23;;;;;;;12.10;8.10;;;;;;;44.64;18.62;99294.97;5030924;28;20033;-58
2021/08/17 09:51:49;;;;;;;11.48;7.85;;;;;;;44.40;19.09;99299.47;5031597;28;20033;-59
2021/08/17 09:54:18;;;;;;;11.60;8.13;;;;;;;44.66;18.92;99290.84;5027520;28;20049;-60
2021/08/17 09:57:03;;;;;;;12.77;7.53;;;;;;;45.44;18.02;99300.94;5031677;28;20041;-62
2021/08/17 09:59:31;;;;;;;11.13;8.50;;;;;;;45.20;17.51;99295.38;5030091;28;20054;-63
2021/08/17 10:01:58;;;;;;;8.85;7.95;;;;;;;45.01;18.32;99281.53;5028893;28;20394;-61
2021/08/17 10:04:25;;;;;;;11.73;7.78;;;;;;;45.95;17.74;99284.75;5027942;28;20049;-58
2021/08/17 10:06:52;;;;;;;12.57;8.27;;;;;;;46.51;17.30;99279.31;5029339;28;20043;-59
2021/08/17 10:09:18;;;;;;;9.45;8.30;;;;;;;45.79;17.91;99286.00;5031498;28;20033;-57
2021/08/17 10:11:45;;;;;;;13.93;9.00;;;;;;;45.66;17.76;99276.53;5031302;28;20489;-58
2021/08/17 10:14:15;;;;;;;9.65;8.65;;;;;;;45.67;17.62;99267.19;5031088;28;20318;-58
2021/08/17 10:16:43;;;;;;;9.30;8.30;;;;;;;45.44;17.96;99278.97;5028848;28;20064;-62
2021/08/17 10:19:10;;;;;;;10.77;7.40;;;;;;;44.84;17.94;99261.09;5028707;28;20034;-60
2021/08/17 10:21:39;;;;;;;13.05;7.10;;;;;;;44.45;18.09;99258.31;5008837;28;20057;-59
2021/08/17 10:24:24;;;;;;;12.10;8.23;;;;;;;44.06;18.90;99255.53;5030934;28;20270;-64
2021/08/17 10:26:50;;;;;;;10.50;8.00;;;;;;;44.36;18.09;99262.78;5029965;28;20042;-59
2021/08/17 10:29:27;;;;;;;16.90;7.95;;;;;;;44.18;18.42;99270.50;5026130;28;20106;-59
2021/08/17 10:31:53;;;;;;;;;;;;;;;43.42;18.78;99264.44;5029797;28;20063;-58
2021/08/17 10:34:38;;;;;;;12.60;7.72;;;;;;;43.40;18.81;99242.00;5030538;28;19917;-59
2021/08/17 10:37:20;;;;;;;14.75;7.70;;;;;;;44.12;18.54;99244.25;5030650;28;20045;-60
2021/08/17 10:39:46;;;;;;;8.85;7.45;;;;;;;44.29;18.61;99243.88;5025915;28;20069;-60
2021/08/17 10:42:25;;;;;;;8.55;7.43;;;;;;;43.84;18.62;99256.69;5028454;28;20485;-59
2021/08/17 10:44:52;;;;;;;9.52;7.15;;;;;;;43.20;18.82;99248.34;5032848;28;20140;-59
2021/08/17 10:47:33;;;;;;;10.43;7.90;;;;;;;42.73;19.36;99237.66;5037515;28;20049;-57
2021/08/17 10:50:00;;;;;;;13.57;7.50;;;;;;;42.86;19.27;99241.78;5024697;28;20319;-58
2021/08/17 10:52:36;;;;;;;13.48;7.75;;;;;;;42.97;19.28;99229.75;5026052;28;20087;-58
2021/08/17 10:55:34;;;;;;;10.13;7.18;;;;;;;43.16;19.54;99247.25;5028556;28;21646;-60
2021/08/17 10:58:11;;;;;;;8.50;6.95;;;;;;;43.34;18.91;99237.66;5027334;28;20056;-59
2021/08/17 11:00:45;;;;;;;13.32;7.60;;;;;;;43.21;19.33;99241.78;5017940;28;20095;-58
2021/08/17 11:03:12;;;;;;;14.50;8.35;;;;;;;42.91;19.43;99237.13;5028447;28;20129;-61
2021/08/17 11:05:53;;;;;;;14.07;8.15;;;;;;;42.72;19.80;99246.13;5028230;28;20072;-58
2021/08/17 11:08:31;;;;;;;13.32;8.10;;;;;;;42.24;20.31;99240.03;5030242;28;20045;-59
2021/08/17 11:10:58;;;;;;;8.20;7.40;;;;;;;41.91;20.16;99243.19;5030352;28;20539;-58
2021/08/17 11:13:26;;;;;;;11.63;7.80;;;;;;;42.31;19.95;99237.84;5010996;28;20045;-59
2021/08/17 11:16:08;;;;;;;11.13;6.85;;;;;;;42.29;20.07;99228.31;5009740;28;20132;-59
2021/08/17 11:18:58;;;;;;;9.40;6.97;;;;;;;42.05;20.13;99223.28;5009452;28;20567;-59
2021/08/17 11:21:39;;;;;;;10.45;7.65;;;;;;;42.06;20.28;99199.53;5010808;28;20429;-58
2021/08/17 11:24:08;;;;;;;11.15;7.00;;;;;;;42.22;20.31;99225.78;5010423;28;20045;-60
2021/08/17 11:26:34;;;;;;;12.27;7.85;;;;;;;41.86;20.90;99222.09;5010601;28;20042;-59
2021/08/17 11:29:00;;;;;;;8.82;7.38;;;;;;;41.81;20.36;99217.44;5010225;28;20054;-58